Decoded Metar for KPNC (PONCA CITY in OK, USA) (IATA:PNC) | Meteo·Mobile Aviation Weather
aviador You're here:

KPNC Decoded Metar

PONCA CITY in OK, USA
Report Time2018-10-18 15:53:00
UTC Time2018-10-18 16:59:45
Flight Rules Old
Wind110° at 08 kt
W.Decomp.*RWY 17: 3.4 kt HW 7.3 kt LCW
W.Rank110° ranks 18
Current wind is above 110° avg. (7.4)
Visibility9999 m
Phenomena:N/A
Clouds:Scattered 120 Hf
Expected CloudBase > 4,000 ft AGL from Temp-Dew spread
CeilingNone
Temp16°C (ISA +3)
Dew Point06°C (52% RH)
AAT12.2°C
QNH1032 hPa
Density Alt860 ft
Elevation1,010 ft
Report Wrong Elevation
Raw Report
KPNC 181553Z AUTO 11008KT 10SM SCT120 16/06 A3047 RMK AO2 SLP316
T01610061=

Extra information for KPNC:More info

Metar Taf Metar & Taf Last 4 Metars F.Rules Stats Wind Profile Meteogram Temp Stats Airport Information Weather charts Add Link Nearby VenuesMetar ALERT Operation Metar Decoded Social comments

AIRNAV info for KPNC